Senyomaru — JI3557 — position and weather

sailwx.info

Track history (hours):
 
Tides and Currents Weather Stations Pressure Air Temp Water Temp Dewpoint Dewpoint Depression Visibility Wind Speed Wind Dir Waves Ship Positions

Senyomaru

Last reported at 2016-Sep-20 17:32 UTC. Time now 2016-Oct-01 20:43 UTC.
Position N 34°31' E 135°21'.
Warning: this ship's position is 11 days out of date.

Length 69 m; draft 4 m.

Type: Tanker. MMSI: 431300188.

Date/timePositionNaut miles runAvg speedWind from/ knotsBaromVisibWave heightAir tempDewpointWater temp
2016-Sep-20 17:32N 34°31' E 135°21'0 0.0
2016-Sep-20 13:26N 34°31' E 135°21'0 0.0
2016-Sep-20 10:32N 34°31' E 135°21'0 0.0
2016-Sep-20 07:32N 34°31' E 135°21'0 0.1
2016-Sep-20 06:32N 34°31' E 135°21'0 0.0
2016-Sep-20 02:32N 34°31' E 135°21'3 0.1
2016-Sep-18 19:10N 34°34' E 135°23'0 0.0
2016-Sep-18 15:16N 34°34' E 135°23'0 0.0
2016-Sep-18 02:28N 34°34' E 135°23'0 0.0
2016-Sep-18 01:22N 34°34' E 135°23'0 0.0
2016-Sep-18 00:28N 34°34' E 135°23'0 0.0
2016-Sep-17 22:28N 34°34' E 135°23'0 0.0
2016-Sep-17 21:28N 34°34' E 135°23'0 0.0
2016-Sep-17 20:28N 34°34' E 135°23'0 0.0
2016-Sep-17 13:22N 34°34' E 135°23'0 0.0
2016-Sep-17 12:28N 34°34' E 135°23'0 0.0
2016-Sep-17 10:22N 34°34' E 135°23'0 0.0
2016-Sep-17 09:28N 34°34' E 135°23'0 0.0
2016-Sep-17 05:32N 34°34' E 135°23'1212.2
2016-Sep-17 04:33N 34°34' E 135°09'  
2016-Sep-14 13:10N 34°36' E 134°56'711.0
2016-Sep-14 12:33N 34°36' E 135°04'  
2016-Sep-12 06:33N 34°35' E 134°52'27 3.4
2016-Sep-11 22:32N 34°33' E 135°25'2 2.0
2016-Sep-11 21:23N 34°34' E 135°23'0 0.0
2016-Sep-11 20:23N 34°34' E 135°23'0 0.0
2016-Sep-11 19:29N 34°34' E 135°23'0 0.1
2016-Sep-11 18:29N 34°34' E 135°23'0 0.0
2016-Sep-11 16:05N 34°34' E 135°23'0 0.0
2016-Sep-11 14:23N 34°34' E 135°23'0 0.0
2016-Sep-11 11:11N 34°34' E 135°23'0 0.0
2016-Sep-11 10:17N 34°34' E 135°23'0 0.0
2016-Sep-11 03:17N 34°34' E 135°23'0 0.0
2016-Sep-11 02:17N 34°34' E 135°23'  
Track history (hours):
 
Tides and Currents Weather Stations Pressure Air Temp Water Temp Dewpoint Dewpoint Depression Visibility Wind Speed Wind Dir Waves Ship Positions

Senyomaru

Last reported at 2016-Sep-20 17:32 UTC. Time now 2016-Oct-01 20:43 UTC.
Position N 34°31' E 135°21'.
Warning: this ship's position is 11 days out of date.

Length 69 m; draft 4 m.

Type: Tanker. MMSI: 431300188.

Date/timePositionNaut miles runAvg speedWind from/ knotsBaromVisibWave heightAir tempDewpointWater temp
2016-Sep-20 17:32N 34°31' E 135°21'0 0.0
2016-Sep-20 13:26N 34°31' E 135°21'0 0.0
2016-Sep-20 10:32N 34°31' E 135°21'0 0.0
2016-Sep-20 07:32N 34°31' E 135°21'0 0.1
2016-Sep-20 06:32N 34°31' E 135°21'0 0.0
2016-Sep-20 02:32N 34°31' E 135°21'3 0.1
2016-Sep-18 19:10N 34°34' E 135°23'0 0.0
2016-Sep-18 15:16N 34°34' E 135°23'0 0.0
2016-Sep-18 02:28N 34°34' E 135°23'0 0.0
2016-Sep-18 01:22N 34°34' E 135°23'0 0.0
2016-Sep-18 00:28N 34°34' E 135°23'0 0.0
2016-Sep-17 22:28N 34°34' E 135°23'0 0.0
2016-Sep-17 21:28N 34°34' E 135°23'0 0.0
2016-Sep-17 20:28N 34°34' E 135°23'0 0.0
2016-Sep-17 13:22N 34°34' E 135°23'0 0.0
2016-Sep-17 12:28N 34°34' E 135°23'0 0.0
2016-Sep-17 10:22N 34°34' E 135°23'0 0.0
2016-Sep-17 09:28N 34°34' E 135°23'0 0.0
2016-Sep-17 05:32N 34°34' E 135°23'1212.2
2016-Sep-17 04:33N 34°34' E 135°09'  
2016-Sep-14 13:10N 34°36' E 134°56'711.0
2016-Sep-14 12:33N 34°36' E 135°04'  
2016-Sep-12 06:33N 34°35' E 134°52'27 3.4
2016-Sep-11 22:32N 34°33' E 135°25'2 2.0
2016-Sep-11 21:23N 34°34' E 135°23'0 0.0
2016-Sep-11 20:23N 34°34' E 135°23'0 0.0
2016-Sep-11 19:29N 34°34' E 135°23'0 0.1
2016-Sep-11 18:29N 34°34' E 135°23'0 0.0
2016-Sep-11 16:05N 34°34' E 135°23'0 0.0
2016-Sep-11 14:23N 34°34' E 135°23'0 0.0
2016-Sep-11 11:11N 34°34' E 135°23'0 0.0
2016-Sep-11 10:17N 34°34' E 135°23'0 0.0
2016-Sep-11 03:17N 34°34' E 135°23'0 0.0
2016-Sep-11 02:17N 34°34' E 135°23'  

Dump ship's entire track history